sensor_id;sensor_type;location;lat;lon;timestamp;pressure;altitude;pressure_sealevel;temperature;humidity
76592;BME280;65481;47.600;19.682;2023-09-07T00:01:07;100985.22;;;15.27;89.75
76592;BME280;65481;47.600;19.682;2023-09-07T00:06:09;100978.13;;;15.16;89.74
76592;BME280;65481;47.600;19.682;2023-09-07T00:11:10;100985.84;;;15.17;90.54
76592;BME280;65481;47.600;19.682;2023-09-07T00:16:10;100977.22;;;15.10;91.32
76592;BME280;65481;47.600;19.682;2023-09-07T00:21:11;100974.81;;;15.08;91.51
76592;BME280;65481;47.600;19.682;2023-09-07T00:26:11;100977.38;;;15.03;91.85
76592;BME280;65481;47.600;19.682;2023-09-07T00:31:12;100977.03;;;14.99;92.24
76592;BME280;65481;47.600;19.682;2023-09-07T00:36:13;100970.50;;;14.90;92.56
76592;BME280;65481;47.600;19.682;2023-09-07T00:41:13;100977.25;;;14.81;92.99
76592;BME280;65481;47.600;19.682;2023-09-07T00:46:15;100967.72;;;14.68;93.21
76592;BME280;65481;47.600;19.682;2023-09-07T00:51:15;100968.53;;;14.68;92.77
76592;BME280;65481;47.600;19.682;2023-09-07T00:56:16;100975.44;;;14.69;92.38
76592;BME280;65481;47.600;19.682;2023-09-07T01:01:17;100979.06;;;14.51;91.96
76592;BME280;65481;47.600;19.682;2023-09-07T01:06:26;100969.13;;;14.47;91.63
76592;BME280;65481;47.600;19.682;2023-09-07T01:11:36;100972.03;;;14.45;92.41
76592;BME280;65481;47.600;19.682;2023-09-07T01:16:37;100962.22;;;14.46;93.17
76592;BME280;65481;47.600;19.682;2023-09-07T01:21:41;100968.34;;;14.46;93.32
76592;BME280;65481;47.600;19.682;2023-09-07T01:26:41;100966.72;;;14.45;93.33
76592;BME280;65481;47.600;19.682;2023-09-07T01:31:43;100963.97;;;14.40;93.67
76592;BME280;65481;47.600;19.682;2023-09-07T01:36:43;100961.31;;;14.40;93.58
76592;BME280;65481;47.600;19.682;2023-09-07T01:41:44;100962.16;;;14.29;92.58
76592;BME280;65481;47.600;19.682;2023-09-07T01:46:44;100970.34;;;14.15;92.48
76592;BME280;65481;47.600;19.682;2023-09-07T01:51:45;100967.53;;;14.34;91.58
76592;BME280;65481;47.600;19.682;2023-09-07T01:56:46;100973.44;;;14.36;91.30
76592;BME280;65481;47.600;19.682;2023-09-07T02:01:46;100968.38;;;14.22;91.51
76592;BME280;65481;47.600;19.682;2023-09-07T02:06:47;100970.72;;;14.19;91.14
76592;BME280;65481;47.600;19.682;2023-09-07T02:11:47;100974.63;;;14.16;90.90
76592;BME280;65481;47.600;19.682;2023-09-07T02:16:47;100972.53;;;14.18;90.46
76592;BME280;65481;47.600;19.682;2023-09-07T02:21:48;100973.84;;;14.04;90.82
76592;BME280;65481;47.600;19.682;2023-09-07T02:26:49;100972.69;;;14.00;91.77
76592;BME280;65481;47.600;19.682;2023-09-07T02:31:49;100972.47;;;14.01;92.73
76592;BME280;65481;47.600;19.682;2023-09-07T02:36:50;100967.63;;;13.98;93.56
76592;BME280;65481;47.600;19.682;2023-09-07T02:41:50;100975.25;;;13.95;93.99
76592;BME280;65481;47.600;19.682;2023-09-07T02:46:51;100978.94;;;13.93;93.92
76592;BME280;65481;47.600;19.682;2023-09-07T02:51:51;100972.22;;;13.91;94.19
76592;BME280;65481;47.600;19.682;2023-09-07T02:56:52;100982.16;;;13.84;93.82
76592;BME280;65481;47.600;19.682;2023-09-07T03:01:52;100978.94;;;13.70;93.84
76592;BME280;65481;47.600;19.682;2023-09-07T03:06:52;100976.84;;;13.60;94.35
76592;BME280;65481;47.600;19.682;2023-09-07T03:11:53;100979.06;;;13.75;94.80
76592;BME280;65481;47.600;19.682;2023-09-07T03:16:53;100981.78;;;13.80;95.29
76592;BME280;65481;47.600;19.682;2023-09-07T03:21:54;100991.84;;;13.78;95.64
76592;BME280;65481;47.600;19.682;2023-09-07T03:26:55;100984.00;;;13.83;94.16
76592;BME280;65481;47.600;19.682;2023-09-07T03:31:55;100980.78;;;13.69;93.33
76592;BME280;65481;47.600;19.682;2023-09-07T03:36:56;100985.50;;;13.55;93.18
76592;BME280;65481;47.600;19.682;2023-09-07T03:41:57;100987.66;;;13.70;92.09
76592;BME280;65481;47.600;19.682;2023-09-07T03:46:58;100988.47;;;13.59;91.93
76592;BME280;65481;47.600;19.682;2023-09-07T03:51:58;100993.03;;;13.40;93.30
76592;BME280;65481;47.600;19.682;2023-09-07T03:56:59;100997.09;;;13.42;95.84
76592;BME280;65481;47.600;19.682;2023-09-07T04:01:59;100998.78;;;13.37;96.84
76592;BME280;65481;47.600;19.682;2023-09-07T04:07:00;100999.53;;;13.44;95.38
76592;BME280;65481;47.600;19.682;2023-09-07T04:12:00;101000.53;;;13.31;96.12
76592;BME280;65481;47.600;19.682;2023-09-07T04:17:01;101014.13;;;13.35;96.69
76592;BME280;65481;47.600;19.682;2023-09-07T04:22:01;101010.97;;;13.26;95.68
76592;BME280;65481;47.600;19.682;2023-09-07T04:27:02;101012.56;;;13.15;95.28
76592;BME280;65481;47.600;19.682;2023-09-07T04:32:02;101014.75;;;13.18;95.37
76592;BME280;65481;47.600;19.682;2023-09-07T04:37:03;101009.47;;;13.18;96.71
76592;BME280;65481;47.600;19.682;2023-09-07T04:42:04;101019.88;;;13.31;97.25
76592;BME280;65481;47.600;19.682;2023-09-07T04:47:04;101021.38;;;13.39;97.71
76592;BME280;65481;47.600;19.682;2023-09-07T04:52:05;101024.53;;;13.48;98.59
76592;BME280;65481;47.600;19.682;2023-09-07T04:57:07;101024.31;;;13.61;98.74
76592;BME280;65481;47.600;19.682;2023-09-07T05:02:07;101029.78;;;13.78;98.65
76592;BME280;65481;47.600;19.682;2023-09-07T05:07:08;101034.84;;;13.92;98.78
76592;BME280;65481;47.600;19.682;2023-09-07T05:12:08;101033.25;;;14.15;98.69
76592;BME280;65481;47.600;19.682;2023-09-07T05:17:09;101032.50;;;14.55;97.72
76592;BME280;65481;47.600;19.682;2023-09-07T05:22:09;101035.84;;;15.03;96.55
76592;BME280;65481;47.600;19.682;2023-09-07T05:27:11;101043.09;;;15.54;94.87
76592;BME280;65481;47.600;19.682;2023-09-07T05:32:12;101038.28;;;16.02;93.16
76592;BME280;65481;47.600;19.682;2023-09-07T05:37:13;101045.41;;;16.58;91.07
76592;BME280;65481;47.600;19.682;2023-09-07T05:42:13;101046.84;;;17.15;89.23
76592;BME280;65481;47.600;19.682;2023-09-07T05:47:14;101048.78;;;17.85;86.66
76592;BME280;65481;47.600;19.682;2023-09-07T05:52:14;101052.28;;;18.34;84.32
76592;BME280;65481;47.600;19.682;2023-09-07T05:57:15;101044.81;;;19.04;81.83
76592;BME280;65481;47.600;19.682;2023-09-07T06:02:15;101040.28;;;19.67;79.25
76592;BME280;65481;47.600;19.682;2023-09-07T06:07:16;101048.31;;;19.98;76.24
76592;BME280;65481;47.600;19.682;2023-09-07T06:12:16;101048.06;;;20.65;73.83
76592;BME280;65481;47.600;19.682;2023-09-07T06:17:16;101059.41;;;21.07;70.82
76592;BME280;65481;47.600;19.682;2023-09-07T06:22:17;101059.44;;;21.76;67.46
76592;BME280;65481;47.600;19.682;2023-09-07T06:27:17;101053.63;;;22.66;63.90
76592;BME280;65481;47.600;19.682;2023-09-07T06:32:18;101052.88;;;23.18;60.97
76592;BME280;65481;47.600;19.682;2023-09-07T06:37:19;101067.72;;;24.01;58.30
76592;BME280;65481;47.600;19.682;2023-09-07T06:42:19;101057.78;;;24.66;53.81
76592;BME280;65481;47.600;19.682;2023-09-07T06:47:19;101061.06;;;25.36;51.08
76592;BME280;65481;47.600;19.682;2023-09-07T06:52:20;101066.75;;;25.89;49.21
76592;BME280;65481;47.600;19.682;2023-09-07T06:57:20;101067.88;;;26.28;46.35
76592;BME280;65481;47.600;19.682;2023-09-07T07:02:21;101060.78;;;26.50;46.17
76592;BME280;65481;47.600;19.682;2023-09-07T07:07:22;101065.41;;;26.76;45.34
76592;BME280;65481;47.600;19.682;2023-09-07T07:12:22;101065.22;;;27.51;43.45
76592;BME280;65481;47.600;19.682;2023-09-07T07:17:23;101072.06;;;28.05;42.09
76592;BME280;65481;47.600;19.682;2023-09-07T07:22:23;101063.66;;;28.28;39.10
76592;BME280;65481;47.600;19.682;2023-09-07T07:27:24;101061.47;;;28.73;37.23
76592;BME280;65481;47.600;19.682;2023-09-07T07:32:24;101065.28;;;29.14;36.81
76592;BME280;65481;47.600;19.682;2023-09-07T07:37:25;101071.44;;;29.82;35.73
76592;BME280;65481;47.600;19.682;2023-09-07T07:42:26;101066.59;;;30.25;35.04
76592;BME280;65481;47.600;19.682;2023-09-07T07:47:26;101067.13;;;30.67;34.34
76592;BME280;65481;47.600;19.682;2023-09-07T07:52:26;101064.00;;;30.81;33.60
76592;BME280;65481;47.600;19.682;2023-09-07T07:57:27;101071.25;;;31.34;32.76
76592;BME280;65481;47.600;19.682;2023-09-07T08:02:27;101075.50;;;31.64;32.07
76592;BME280;65481;47.600;19.682;2023-09-07T08:07:28;101072.41;;;32.29;31.38
76592;BME280;65481;47.600;19.682;2023-09-07T08:12:29;101073.66;;;32.52;31.10
76592;BME280;65481;47.600;19.682;2023-09-07T08:17:29;101071.31;;;32.89;30.58
76592;BME280;65481;47.600;19.682;2023-09-07T08:22:30;101073.00;;;33.17;29.40
76592;BME280;65481;47.600;19.682;2023-09-07T08:27:30;101067.75;;;33.51;29.02
76592;BME280;65481;47.600;19.682;2023-09-07T08:32:31;101065.06;;;33.32;29.12
76592;BME280;65481;47.600;19.682;2023-09-07T08:37:31;101064.66;;;33.53;28.38
76592;BME280;65481;47.600;19.682;2023-09-07T08:42:36;101056.09;;;33.78;28.12
76592;BME280;65481;47.600;19.682;2023-09-07T08:47:37;101058.44;;;34.33;27.93
76592;BME280;65481;47.600;19.682;2023-09-07T08:52:39;101049.66;;;34.47;27.14
76592;BME280;65481;47.600;19.682;2023-09-07T08:57:40;101041.00;;;34.45;26.97
76592;BME280;65481;47.600;19.682;2023-09-07T09:02:41;101041.94;;;33.99;27.33
76592;BME280;65481;47.600;19.682;2023-09-07T09:07:41;101042.44;;;34.08;27.29
76592;BME280;65481;47.600;19.682;2023-09-07T09:12:45;101042.84;;;34.37;27.17
76592;BME280;65481;47.600;19.682;2023-09-07T09:17:47;101033.13;;;33.86;26.92
76592;BME280;65481;47.600;19.682;2023-09-07T09:22:48;101032.81;;;33.41;27.43
76592;BME280;65481;47.600;19.682;2023-09-07T09:27:48;101045.38;;;33.69;26.47
76592;BME280;65481;47.600;19.682;2023-09-07T09:32:49;101027.94;;;34.35;26.27
76592;BME280;65481;47.600;19.682;2023-09-07T09:37:50;101029.47;;;34.63;25.22
76592;BME280;65481;47.600;19.682;2023-09-07T09:42:52;101024.03;;;34.66;25.70
76592;BME280;65481;47.600;19.682;2023-09-07T09:47:55;101015.31;;;34.57;25.15
76592;BME280;65481;47.600;19.682;2023-09-07T09:53:04;101018.63;;;34.39;25.27
76592;BME280;65481;47.600;19.682;2023-09-07T09:58:05;101018.56;;;34.05;25.20
76592;BME280;65481;47.600;19.682;2023-09-07T10:03:08;101017.66;;;34.55;24.25
76592;BME280;65481;47.600;19.682;2023-09-07T10:08:15;101005.25;;;34.68;24.39
76592;BME280;65481;47.600;19.682;2023-09-07T10:13:16;101011.84;;;34.30;24.64
76592;BME280;65481;47.600;19.682;2023-09-07T10:18:33;101001.56;;;34.87;24.40
76592;BME280;65481;47.600;19.682;2023-09-07T10:28:39;101007.91;;;34.61;23.67
76592;BME280;65481;47.600;19.682;2023-09-07T10:33:40;100993.81;;;34.59;24.31
76592;BME280;65481;47.600;19.682;2023-09-07T10:38:41;100985.44;;;34.45;24.09
76592;BME280;65481;47.600;19.682;2023-09-07T10:48:52;100989.28;;;33.56;24.24
76592;BME280;65481;47.600;19.682;2023-09-07T10:53:53;100982.03;;;34.24;23.96
76592;BME280;65481;47.600;19.682;2023-09-07T10:58:55;100979.34;;;34.28;23.59
76592;BME280;65481;47.600;19.682;2023-09-07T11:03:56;100976.38;;;34.40;23.44
76592;BME280;65481;47.600;19.682;2023-09-07T11:09:01;100971.25;;;34.39;23.85
76592;BME280;65481;47.600;19.682;2023-09-07T11:14:04;100970.53;;;34.42;23.79
76592;BME280;65481;47.600;19.682;2023-09-07T11:19:06;100966.94;;;34.38;24.23
76592;BME280;65481;47.600;19.682;2023-09-07T11:24:08;100960.03;;;34.85;23.71
76592;BME280;65481;47.600;19.682;2023-09-07T11:29:08;100953.53;;;34.29;23.56
76592;BME280;65481;47.600;19.682;2023-09-07T11:34:13;100956.19;;;34.22;23.24
76592;BME280;65481;47.600;19.682;2023-09-07T11:39:14;100946.31;;;34.13;22.64
76592;BME280;65481;47.600;19.682;2023-09-07T11:44:14;100945.28;;;34.25;22.88
76592;BME280;65481;47.600;19.682;2023-09-07T11:49:15;100927.31;;;34.28;22.80
76592;BME280;65481;47.600;19.682;2023-09-07T11:54:20;100927.06;;;34.06;23.41
76592;BME280;65481;47.600;19.682;2023-09-07T11:59:20;100933.69;;;33.75;23.30
76592;BME280;65481;47.600;19.682;2023-09-07T12:04:21;100935.03;;;34.19;22.58
76592;BME280;65481;47.600;19.682;2023-09-07T12:09:21;100934.75;;;33.93;22.26
76592;BME280;65481;47.600;19.682;2023-09-07T12:14:22;100925.16;;;34.10;22.25
76592;BME280;65481;47.600;19.682;2023-09-07T12:19:22;100926.19;;;33.98;22.03
76592;BME280;65481;47.600;19.682;2023-09-07T12:24:23;100923.56;;;33.79;22.27
76592;BME280;65481;47.600;19.682;2023-09-07T12:29:23;100916.16;;;33.79;21.75
76592;BME280;65481;47.600;19.682;2023-09-07T12:34:24;100922.75;;;33.75;21.92
76592;BME280;65481;47.600;19.682;2023-09-07T12:39:25;100917.00;;;33.83;22.21
76592;BME280;65481;47.600;19.682;2023-09-07T12:44:25;100915.75;;;33.81;22.21
76592;BME280;65481;47.600;19.682;2023-09-07T12:49:26;100916.03;;;33.99;21.42
76592;BME280;65481;47.600;19.682;2023-09-07T12:54:26;100914.09;;;33.73;21.04
76592;BME280;65481;47.600;19.682;2023-09-07T12:59:28;100908.44;;;33.58;20.91
76592;BME280;65481;47.600;19.682;2023-09-07T13:04:28;100902.00;;;33.74;20.66
76592;BME280;65481;47.600;19.682;2023-09-07T13:09:30;100897.72;;;33.76;20.81
76592;BME280;65481;47.600;19.682;2023-09-07T13:14:30;100899.91;;;33.63;21.05
76592;BME280;65481;47.600;19.682;2023-09-07T13:19:31;100891.16;;;33.50;21.19
76592;BME280;65481;47.600;19.682;2023-09-07T13:24:31;100892.81;;;33.32;21.55
76592;BME280;65481;47.600;19.682;2023-09-07T13:29:32;100891.13;;;33.23;21.07
76592;BME280;65481;47.600;19.682;2023-09-07T13:34:33;100890.06;;;33.05;20.77
76592;BME280;65481;47.600;19.682;2023-09-07T13:39:33;100886.50;;;32.81;21.70
76592;BME280;65481;47.600;19.682;2023-09-07T13:44:34;100884.97;;;33.03;21.28
76592;BME280;65481;47.600;19.682;2023-09-07T13:49:34;100873.22;;;33.03;21.84
76592;BME280;65481;47.600;19.682;2023-09-07T13:54:35;100875.34;;;33.13;21.89
76592;BME280;65481;47.600;19.682;2023-09-07T13:59:35;100877.91;;;33.02;21.88
76592;BME280;65481;47.600;19.682;2023-09-07T14:04:36;100867.34;;;33.01;21.99
76592;BME280;65481;47.600;19.682;2023-09-07T14:09:36;100872.81;;;33.01;21.91
76592;BME280;65481;47.600;19.682;2023-09-07T14:14:38;100865.09;;;32.83;22.71
76592;BME280;65481;47.600;19.682;2023-09-07T14:19:38;100865.59;;;32.46;22.99
76592;BME280;65481;47.600;19.682;2023-09-07T14:24:39;100857.09;;;32.28;23.56
76592;BME280;65481;47.600;19.682;2023-09-07T14:29:39;100847.59;;;32.22;24.39
76592;BME280;65481;47.600;19.682;2023-09-07T14:34:40;100852.34;;;32.05;24.96
76592;BME280;65481;47.600;19.682;2023-09-07T14:39:40;100846.09;;;31.65;25.30
76592;BME280;65481;47.600;19.682;2023-09-07T14:44:47;100842.53;;;31.65;25.46
76592;BME280;65481;47.600;19.682;2023-09-07T14:49:48;100834.47;;;31.33;26.46
76592;BME280;65481;47.600;19.682;2023-09-07T14:54:48;100840.09;;;31.08;26.94
76592;BME280;65481;47.600;19.682;2023-09-07T14:59:49;100834.25;;;30.90;27.00
76592;BME280;65481;47.600;19.682;2023-09-07T15:04:50;100842.66;;;30.69;26.90
76592;BME280;65481;47.600;19.682;2023-09-07T15:09:50;100838.50;;;30.59;26.58
76592;BME280;65481;47.600;19.682;2023-09-07T15:14:52;100830.16;;;30.51;26.85
76592;BME280;65481;47.600;19.682;2023-09-07T15:19:53;100840.03;;;30.28;26.60
76592;BME280;65481;47.600;19.682;2023-09-07T15:24:53;100834.84;;;29.94;26.79
76592;BME280;65481;47.600;19.682;2023-09-07T15:29:56;100831.13;;;29.74;27.41
76592;BME280;65481;47.600;19.682;2023-09-07T15:34:57;100838.88;;;29.59;27.76
76592;BME280;65481;47.600;19.682;2023-09-07T15:39:57;100833.25;;;29.40;27.65
76592;BME280;65481;47.600;19.682;2023-09-07T15:44:58;100835.38;;;29.22;28.44
76592;BME280;65481;47.600;19.682;2023-09-07T15:50:00;100834.78;;;28.79;28.71
76592;BME280;65481;47.600;19.682;2023-09-07T15:55:01;100832.53;;;28.81;28.78
76592;BME280;65481;47.600;19.682;2023-09-07T16:00:02;100852.72;;;28.71;28.98
76592;BME280;65481;47.600;19.682;2023-09-07T16:05:03;100851.09;;;28.45;29.19
76592;BME280;65481;47.600;19.682;2023-09-07T16:10:04;100847.16;;;28.21;29.75
76592;BME280;65481;47.600;19.682;2023-09-07T16:15:06;100848.53;;;28.06;29.67
76592;BME280;65481;47.600;19.682;2023-09-07T16:20:08;100855.97;;;27.97;29.97
76592;BME280;65481;47.600;19.682;2023-09-07T16:25:09;100845.91;;;27.76;30.36
76592;BME280;65481;47.600;19.682;2023-09-07T16:30:11;100851.91;;;27.61;31.00
76592;BME280;65481;47.600;19.682;2023-09-07T16:35:13;100853.09;;;27.51;31.28
76592;BME280;65481;47.600;19.682;2023-09-07T16:40:14;100860.13;;;27.43;31.40
76592;BME280;65481;47.600;19.682;2023-09-07T16:45:16;100860.16;;;27.34;32.01
76592;BME280;65481;47.600;19.682;2023-09-07T16:50:17;100858.78;;;27.19;32.45
76592;BME280;65481;47.600;19.682;2023-09-07T16:55:18;100858.84;;;27.02;33.09
76592;BME280;65481;47.600;19.682;2023-09-07T17:00:19;100865.31;;;26.80;33.61
76592;BME280;65481;47.600;19.682;2023-09-07T17:05:22;100871.84;;;26.61;33.77
76592;BME280;65481;47.600;19.682;2023-09-07T17:10:22;100872.19;;;26.42;34.72
76592;BME280;65481;47.600;19.682;2023-09-07T17:15:23;100875.06;;;26.19;35.09
76592;BME280;65481;47.600;19.682;2023-09-07T17:20:27;100882.81;;;26.03;35.34
76592;BME280;65481;47.600;19.682;2023-09-07T17:25:32;100895.84;;;25.83;36.02
76592;BME280;65481;47.600;19.682;2023-09-07T17:30:35;100891.81;;;25.63;36.47
76592;BME280;65481;47.600;19.682;2023-09-07T17:35:37;100894.94;;;25.48;36.95
76592;BME280;65481;47.600;19.682;2023-09-07T17:40:37;100900.25;;;25.30;37.44
76592;BME280;65481;47.600;19.682;2023-09-07T17:45:39;100901.41;;;25.06;38.00
76592;BME280;65481;47.600;19.682;2023-09-07T17:50:58;100908.31;;;24.90;38.52
76592;BME280;65481;47.600;19.682;2023-09-07T17:56:07;100899.97;;;24.77;38.76
76592;BME280;65481;47.600;19.682;2023-09-07T18:01:11;100916.69;;;24.65;39.42
76592;BME280;65481;47.600;19.682;2023-09-07T18:06:12;100918.97;;;24.49;39.61
76592;BME280;65481;47.600;19.682;2023-09-07T18:11:15;100924.09;;;24.37;40.03
76592;BME280;65481;47.600;19.682;2023-09-07T18:16:19;100928.34;;;24.15;40.63
76592;BME280;65481;47.600;19.682;2023-09-07T18:21:20;100927.94;;;23.94;41.39
76592;BME280;65481;47.600;19.682;2023-09-07T18:26:22;100935.31;;;23.74;42.50
76592;BME280;65481;47.600;19.682;2023-09-07T18:31:23;100926.56;;;23.55;43.27
76592;BME280;65481;47.600;19.682;2023-09-07T18:36:25;100926.53;;;23.41;43.95
76592;BME280;65481;47.600;19.682;2023-09-07T18:41:26;100938.97;;;23.23;44.75
76592;BME280;65481;47.600;19.682;2023-09-07T18:46:27;100936.31;;;23.04;45.57
76592;BME280;65481;47.600;19.682;2023-09-07T18:51:28;100942.22;;;22.87;46.62
76592;BME280;65481;47.600;19.682;2023-09-07T18:56:29;100937.81;;;22.77;47.61
76592;BME280;65481;47.600;19.682;2023-09-07T19:01:31;100944.75;;;22.64;48.70
76592;BME280;65481;47.600;19.682;2023-09-07T19:06:33;100940.09;;;22.50;49.78
76592;BME280;65481;47.600;19.682;2023-09-07T19:11:34;100943.47;;;22.37;50.73
76592;BME280;65481;47.600;19.682;2023-09-07T19:16:34;100942.59;;;22.22;51.67
76592;BME280;65481;47.600;19.682;2023-09-07T19:21:35;100939.50;;;22.10;52.49
76592;BME280;65481;47.600;19.682;2023-09-07T19:26:39;100944.81;;;21.96;53.27
76592;BME280;65481;47.600;19.682;2023-09-07T19:31:42;100950.09;;;22.01;53.56
76592;BME280;65481;47.600;19.682;2023-09-07T19:36:43;100944.63;;;21.87;54.16
76592;BME280;65481;47.600;19.682;2023-09-07T19:41:48;100940.28;;;21.67;55.13
76592;BME280;65481;47.600;19.682;2023-09-07T19:46:49;100941.66;;;21.65;55.27
76592;BME280;65481;47.600;19.682;2023-09-07T19:51:50;100937.22;;;21.49;55.47
76592;BME280;65481;47.600;19.682;2023-09-07T19:56:53;100932.00;;;21.34;55.77
76592;BME280;65481;47.600;19.682;2023-09-07T20:01:59;100941.13;;;21.03;55.95
76592;BME280;65481;47.600;19.682;2023-09-07T20:07:01;100938.78;;;20.92;56.01
76592;BME280;65481;47.600;19.682;2023-09-07T20:12:04;100936.84;;;20.57;57.03
76592;BME280;65481;47.600;19.682;2023-09-07T20:17:05;100941.78;;;20.40;57.54
76592;BME280;65481;47.600;19.682;2023-09-07T20:22:13;100940.63;;;20.06;57.89
76592;BME280;65481;47.600;19.682;2023-09-07T20:27:16;100945.19;;;19.85;58.87
76592;BME280;65481;47.600;19.682;2023-09-07T20:32:17;100945.53;;;19.68;59.55
76592;BME280;65481;47.600;19.682;2023-09-07T20:37:18;100943.94;;;19.57;60.00
76592;BME280;65481;47.600;19.682;2023-09-07T20:42:19;100939.69;;;19.40;61.27
76592;BME280;65481;47.600;19.682;2023-09-07T20:47:21;100945.84;;;19.41;61.58
76592;BME280;65481;47.600;19.682;2023-09-07T20:52:22;100945.56;;;19.47;61.70
76592;BME280;65481;47.600;19.682;2023-09-07T20:57:23;100945.31;;;19.23;63.27
76592;BME280;65481;47.600;19.682;2023-09-07T21:02:24;100945.84;;;19.15;63.79
76592;BME280;65481;47.600;19.682;2023-09-07T21:07:25;100941.56;;;19.09;64.61
76592;BME280;65481;47.600;19.682;2023-09-07T21:12:25;100949.28;;;18.89;66.05
76592;BME280;65481;47.600;19.682;2023-09-07T21:17:26;100951.41;;;18.82;65.99
76592;BME280;65481;47.600;19.682;2023-09-07T21:22:27;100943.13;;;18.68;67.21
76592;BME280;65481;47.600;19.682;2023-09-07T21:27:27;100944.97;;;18.57;68.73
76592;BME280;65481;47.600;19.682;2023-09-07T21:32:27;100942.78;;;18.39;70.99
76592;BME280;65481;47.600;19.682;2023-09-07T21:37:28;100934.66;;;18.13;74.54
76592;BME280;65481;47.600;19.682;2023-09-07T21:42:29;100933.03;;;18.01;76.33
76592;BME280;65481;47.600;19.682;2023-09-07T21:47:29;100937.75;;;17.89;77.35
76592;BME280;65481;47.600;19.682;2023-09-07T21:52:30;100928.59;;;17.75;78.42
76592;BME280;65481;47.600;19.682;2023-09-07T21:57:31;100922.38;;;17.64;80.42
76592;BME280;65481;47.600;19.682;2023-09-07T22:02:31;100926.28;;;17.46;82.62
76592;BME280;65481;47.600;19.682;2023-09-07T22:07:34;100931.31;;;17.37;83.75
76592;BME280;65481;47.600;19.682;2023-09-07T22:12:35;100941.69;;;17.33;84.75
76592;BME280;65481;47.600;19.682;2023-09-07T22:17:36;100935.47;;;17.22;85.73
76592;BME280;65481;47.600;19.682;2023-09-07T22:22:36;100934.59;;;17.17;86.52
76592;BME280;65481;47.600;19.682;2023-09-07T22:27:37;100937.25;;;17.12;87.23
76592;BME280;65481;47.600;19.682;2023-09-07T22:32:37;100944.34;;;17.01;88.06
76592;BME280;65481;47.600;19.682;2023-09-07T22:37:38;100944.06;;;16.97;88.45
76592;BME280;65481;47.600;19.682;2023-09-07T22:42:38;100944.59;;;16.99;88.60
76592;BME280;65481;47.600;19.682;2023-09-07T22:47:39;100947.50;;;16.98;88.53
76592;BME280;65481;47.600;19.682;2023-09-07T22:52:40;100944.22;;;16.90;88.67
76592;BME280;65481;47.600;19.682;2023-09-07T22:57:40;100939.13;;;16.89;86.78
76592;BME280;65481;47.600;19.682;2023-09-07T23:02:41;100946.09;;;16.90;85.87
76592;BME280;65481;47.600;19.682;2023-09-07T23:07:42;100942.78;;;16.77;85.84
76592;BME280;65481;47.600;19.682;2023-09-07T23:12:42;100940.56;;;16.69;87.80
76592;BME280;65481;47.600;19.682;2023-09-07T23:17:44;100927.88;;;16.54;89.63
76592;BME280;65481;47.600;19.682;2023-09-07T23:22:44;100935.00;;;16.48;89.83
76592;BME280;65481;47.600;19.682;2023-09-07T23:27:45;100938.53;;;16.54;88.31
76592;BME280;65481;47.600;19.682;2023-09-07T23:32:46;100937.44;;;16.50;87.26
76592;BME280;65481;47.600;19.682;2023-09-07T23:37:46;100939.69;;;16.36;87.07
76592;BME280;65481;47.600;19.682;2023-09-07T23:42:47;100935.69;;;16.39;86.60
76592;BME280;65481;47.600;19.682;2023-09-07T23:47:48;100935.97;;;16.37;86.19
76592;BME280;65481;47.600;19.682;2023-09-07T23:52:49;100928.66;;;16.27;86.82
76592;BME280;65481;47.600;19.682;2023-09-07T23:57:49;100926.38;;;16.36;86.49
